Scott Bar, California
Current Conditions -  °F | °C
As of 2:53 AM on Sunday 21 Dec 2014 (Local Time) from KSIY Reporting Station
Overcast Overcast  
Wind Chill: 44°   Ceiling: 4300
Heat Index: 48°   Visibility: 10mi
Dew Point: 43°   Wind: 8mph
Humidity: 83%   Direction: 210°SSW
Pressure: 30.1"   Gusts: NA
Location:  41.74°N, 123°W
Report Text: KSIY 211053Z AUTO 21007KT 10SM OVC043 09/06 A3010 RMK AO2 SLP202 T00890061
Loading
Personal Weather Stations






























Interactive Weather Map New forecast layout! Learn more

10-Day Weather Forecast

Advertisements
Track Severe Weather on mobile